createdAt,value
2022-12-28T00:00:26.950Z,5.38
2022-12-28T00:03:29.973Z,5.36
2022-12-28T00:06:35.528Z,5.43
2022-12-28T00:09:39.544Z,5.39
2022-12-28T00:12:43.500Z,5.62
2022-12-28T00:15:47.344Z,5.61
2022-12-28T00:18:50.067Z,5.59
2022-12-28T00:21:56.750Z,5.54
2022-12-28T00:25:00.803Z,5.57
2022-12-28T00:28:04.876Z,5.55
2022-12-28T00:31:09.075Z,5.67
2022-12-28T00:34:11.773Z,5.62
2022-12-28T00:37:15.562Z,5.63
2022-12-28T00:40:23.959Z,5.57
2022-12-28T00:43:28.810Z,5.77
2022-12-28T00:46:32.557Z,5.77
2022-12-28T00:49:35.277Z,5.76
2022-12-28T00:52:39.119Z,5.66
2022-12-28T00:55:43.311Z,5.72
2022-12-28T00:58:47.765Z,5.68
2022-12-28T01:01:51.672Z,5.76
2022-12-28T01:04:54.476Z,5.85
2022-12-28T01:07:58.211Z,5.95
2022-12-28T01:11:07.969Z,5.96
2022-12-28T01:14:11.916Z,5.93
2022-12-28T01:17:15.827Z,6.02
2022-12-28T01:20:18.792Z,6.01
2022-12-28T01:23:22.568Z,6.09
2022-12-28T01:26:28.745Z,6.04
2022-12-28T01:29:32.751Z,5.97
2022-12-28T01:32:36.544Z,5.84
2022-12-28T01:35:39.497Z,5.88
2022-12-28T01:38:43.307Z,5.94
2022-12-28T01:41:48.023Z,6.05
2022-12-28T01:44:53.122Z,5.98
2022-12-28T01:47:58.209Z,5.97
2022-12-28T01:51:00.933Z,5.97
2022-12-28T01:54:06.708Z,6.12
2022-12-28T01:57:11.083Z,5.88
2022-12-28T02:00:19.059Z,5.90
2022-12-28T02:03:26.849Z,5.88
2022-12-28T02:06:29.845Z,5.84
2022-12-28T02:09:39.203Z,5.79
2022-12-28T02:12:44.298Z,5.90
2022-12-28T02:15:49.543Z,5.78
2022-12-28T02:18:54.496Z,5.82
2022-12-28T02:22:18.249Z,5.78
2022-12-28T02:25:44.736Z,5.85
2022-12-28T02:29:18.476Z,5.88
2022-12-28T02:32:56.385Z,5.85
2022-12-28T02:36:06.850Z,5.77
2022-12-28T02:39:14.450Z,5.63
2022-12-28T02:42:21.770Z,5.59
2022-12-28T02:46:02.906Z,5.58
2022-12-28T02:49:47.537Z,5.69
2022-12-28T02:53:12.624Z,5.63
2022-12-28T02:56:29.917Z,5.63
2022-12-28T02:59:49.266Z,5.62
2022-12-28T03:03:02.515Z,5.55
2022-12-28T03:06:33.443Z,5.76
2022-12-28T03:09:41.407Z,5.62
2022-12-28T03:12:51.608Z,5.52
2022-12-28T03:15:56.711Z,5.57
2022-12-28T03:19:21.879Z,5.57
2022-12-28T03:22:45.304Z,5.45
2022-12-28T03:26:06.123Z,5.48
2022-12-28T03:29:29.718Z,5.43
2022-12-28T03:32:32.870Z,5.50
2022-12-28T03:35:45.817Z,5.49
2022-12-28T03:38:56.165Z,5.54
2022-12-28T03:42:20.200Z,5.30
2022-12-28T03:45:45.800Z,5.50
2022-12-28T03:48:52.572Z,5.42
2022-12-28T03:51:57.464Z,5.32
2022-12-28T03:55:01.752Z,5.33
2022-12-28T03:58:04.570Z,5.41
2022-12-28T04:01:08.940Z,5.46
2022-12-28T04:04:13.720Z,5.15
2022-12-28T04:07:17.775Z,5.19
2022-12-28T04:10:21.808Z,5.31
2022-12-28T04:13:24.623Z,5.25
2022-12-28T04:16:28.624Z,5.21
2022-12-28T04:19:31.388Z,5.26
2022-12-28T04:22:36.702Z,5.39
2022-12-28T04:25:39.436Z,5.27
2022-12-28T04:28:44.204Z,5.37
2022-12-28T04:31:47.310Z,5.35
2022-12-28T04:34:51.343Z,5.26
2022-12-28T04:37:56.694Z,5.40
2022-12-28T04:40:59.424Z,5.26
2022-12-28T04:44:03.607Z,5.17
2022-12-28T04:47:06.398Z,5.28
2022-12-28T04:50:11.287Z,5.25
2022-12-28T04:53:16.665Z,5.27
2022-12-28T04:56:20.776Z,5.37
2022-12-28T04:59:24.978Z,5.27
2022-12-28T05:02:27.865Z,5.26
2022-12-28T05:05:32.615Z,5.21
2022-12-28T05:08:39.328Z,5.17
2022-12-28T05:11:42.127Z,5.37
2022-12-28T05:14:46.198Z,5.43
2022-12-28T05:17:49.320Z,5.24
2022-12-28T05:20:53.346Z,5.23
2022-12-28T05:23:59.157Z,5.18
2022-12-28T05:27:01.914Z,5.23
2022-12-28T05:30:06.617Z,5.24
2022-12-28T05:33:09.312Z,5.30
2022-12-28T05:36:14.919Z,5.34
2022-12-28T05:39:20.281Z,5.33
2022-12-28T05:42:23.095Z,5.33
2022-12-28T05:45:27.112Z,5.35
2022-12-28T05:48:32.403Z,5.33
2022-12-28T05:51:37.933Z,5.48
2022-12-28T05:58:05.670Z,5.28
2022-12-28T06:01:11.765Z,5.41
2022-12-28T06:04:17.504Z,5.28
2022-12-28T06:07:21.616Z,5.31
2022-12-28T06:10:27.026Z,5.47
2022-12-28T06:13:30.828Z,5.46
2022-12-28T06:16:37.668Z,5.42
2022-12-28T06:19:40.414Z,5.52
2022-12-28T06:22:44.452Z,5.50
2022-12-28T06:25:49.803Z,5.53
2022-12-28T06:28:53.854Z,5.51
2022-12-28T06:32:00.247Z,5.60
2022-12-28T06:35:04.952Z,5.81
2022-12-28T06:38:08.894Z,5.71
2022-12-28T06:41:15.905Z,5.94
2022-12-28T06:44:18.575Z,5.85
2022-12-28T06:47:22.640Z,5.80
2022-12-28T06:50:25.433Z,5.83
2022-12-28T06:53:31.196Z,5.77
2022-12-28T06:59:58.269Z,5.75
2022-12-28T07:03:02.366Z,5.70
2022-12-28T07:06:06.388Z,5.82
2022-12-28T07:09:13.668Z,5.98
2022-12-28T07:12:19.249Z,5.94
2022-12-28T07:15:22.061Z,5.91
2022-12-28T07:21:46.175Z,5.82
2022-12-28T07:24:50.203Z,5.75
2022-12-28T07:27:55.639Z,5.80
2022-12-28T07:30:58.473Z,5.70
2022-12-28T07:34:03.231Z,5.77
2022-12-28T07:37:07.250Z,5.99
2022-12-28T07:40:11.411Z,6.05
2022-12-28T07:46:38.718Z,5.89
2022-12-28T07:49:43.156Z,5.94
2022-12-28T07:52:46.104Z,6.06
2022-12-28T07:55:57.397Z,5.95
2022-12-28T07:59:04.572Z,5.93
2022-12-28T08:02:09.137Z,5.86
2022-12-28T08:05:11.953Z,5.91
2022-12-28T08:11:38.264Z,5.99
2022-12-28T08:14:43.578Z,6.07
2022-12-28T08:17:47.602Z,6.16
2022-12-28T08:20:50.317Z,6.24
2022-12-28T08:27:15.435Z,6.21
2022-12-28T08:30:21.780Z,6.25
2022-12-28T08:33:25.781Z,6.29
2022-12-28T08:36:29.239Z,6.35
2022-12-28T08:39:33.224Z,6.41
2022-12-28T08:42:37.457Z,6.44
2022-12-28T08:45:42.816Z,6.43
2022-12-28T08:48:46.673Z,6.38
2022-12-28T08:51:50.720Z,6.52
2022-12-28T08:54:54.776Z,6.52
2022-12-28T08:57:57.957Z,6.45
2022-12-28T09:01:09.926Z,6.52
2022-12-28T09:04:15.390Z,6.66
2022-12-28T09:07:18.097Z,6.76
2022-12-28T09:10:22.146Z,6.57
2022-12-28T09:13:25.211Z,6.68
2022-12-28T09:16:31.034Z,6.82
2022-12-28T09:19:33.755Z,6.77
2022-12-28T09:22:37.701Z,6.88
2022-12-28T09:25:41.761Z,6.92
2022-12-28T09:28:46.253Z,6.84
2022-12-28T09:31:51.716Z,6.96
2022-12-28T09:34:55.697Z,7.21
2022-12-28T09:37:58.639Z,7.23
2022-12-28T09:41:02.649Z,7.19
2022-12-28T09:44:21.084Z,7.17
2022-12-28T09:47:32.857Z,7.26
2022-12-28T09:50:37.443Z,7.27
2022-12-28T09:53:40.181Z,7.33
2022-12-28T10:00:16.964Z,7.59
2022-12-28T10:03:25.968Z,7.48
2022-12-28T10:06:32.273Z,7.45
2022-12-28T10:09:36.811Z,7.74
2022-12-28T10:12:40.778Z,7.67
2022-12-28T10:15:43.650Z,7.63
2022-12-28T10:18:50.723Z,7.87
2022-12-28T10:22:01.877Z,7.82
2022-12-28T10:25:14.376Z,7.82
2022-12-28T10:28:20.426Z,7.72
2022-12-28T10:31:34.046Z,7.79
2022-12-28T10:34:39.515Z,7.76
2022-12-28T10:37:46.804Z,7.71
2022-12-28T10:40:59.308Z,7.81
2022-12-28T10:47:46.427Z,7.73
2022-12-28T10:50:54.804Z,7.81
2022-12-28T10:54:00.561Z,7.99
2022-12-28T10:57:05.119Z,8.00
2022-12-28T11:00:23.519Z,8.03
2022-12-28T11:03:29.545Z,8.16
2022-12-28T11:06:35.429Z,8.12
2022-12-28T11:09:39.375Z,8.13
2022-12-28T11:12:45.162Z,8.24
2022-12-28T11:15:49.199Z,8.27
2022-12-28T11:18:52.239Z,8.39
2022-12-28T11:21:57.974Z,8.42
2022-12-28T11:25:03.968Z,8.33
2022-12-28T11:28:16.222Z,8.35
2022-12-28T11:31:26.683Z,8.52
2022-12-28T11:34:32.936Z,8.63
2022-12-28T11:37:38.268Z,8.65
2022-12-28T11:40:53.709Z,8.76
2022-12-28T11:43:57.644Z,8.69
2022-12-28T11:47:06.972Z,8.62
2022-12-28T11:50:42.194Z,8.77
2022-12-28T11:54:00.241Z,8.87
2022-12-28T11:57:03.417Z,8.87
2022-12-28T12:00:50.483Z,9.06
2022-12-28T12:04:20.304Z,9.07
2022-12-28T12:07:52.772Z,8.96
2022-12-28T12:11:30.875Z,9.14
2022-12-28T12:14:39.967Z,9.40
2022-12-28T12:17:46.393Z,9.24
2022-12-28T12:20:58.430Z,9.33
2022-12-28T12:24:11.163Z,9.40
2022-12-28T12:27:21.075Z,9.54
2022-12-28T12:30:25.965Z,9.62
2022-12-28T12:33:32.721Z,9.71
2022-12-28T12:37:08.091Z,9.65
2022-12-28T12:40:57.237Z,9.59
2022-12-28T12:44:18.654Z,9.55
2022-12-28T12:47:49.090Z,9.51
2022-12-28T12:51:16.413Z,9.65
2022-12-28T12:54:33.714Z,9.72
2022-12-28T12:57:46.578Z,9.79
2022-12-28T13:01:07.910Z,9.83
2022-12-28T13:04:20.509Z,9.77
2022-12-28T13:07:26.797Z,9.86
2022-12-28T13:10:36.019Z,9.68
2022-12-28T13:13:42.731Z,9.60
2022-12-28T13:16:50.178Z,9.66
2022-12-28T13:20:07.970Z,9.62
2022-12-28T13:23:18.212Z,9.61
2022-12-28T13:26:28.675Z,9.61
2022-12-28T13:29:39.021Z,9.57
2022-12-28T13:32:53.414Z,9.81
2022-12-28T13:36:06.578Z,9.94
2022-12-28T13:42:52.744Z,9.96
2022-12-28T13:45:58.788Z,10.08
2022-12-28T13:49:04.360Z,9.88
2022-12-28T13:52:13.165Z,10.09
2022-12-28T13:55:20.827Z,9.85
2022-12-28T13:58:29.697Z,9.75
2022-12-28T14:01:38.265Z,9.68
2022-12-28T14:04:52.980Z,9.63
2022-12-28T14:07:58.814Z,9.59
2022-12-28T14:11:03.635Z,9.54
2022-12-28T14:14:09.575Z,9.54
2022-12-28T14:17:14.403Z,9.43
2022-12-28T14:20:20.170Z,9.45
2022-12-28T14:23:25.159Z,9.41
2022-12-28T14:26:29.772Z,9.45
2022-12-28T14:29:34.985Z,9.59
2022-12-28T14:32:42.809Z,9.70
2022-12-28T14:35:51.695Z,9.62
2022-12-28T14:39:04.218Z,9.52
2022-12-28T14:42:22.190Z,9.70
2022-12-28T14:46:05.059Z,9.50
2022-12-28T14:49:33.622Z,9.45
2022-12-28T14:52:43.073Z,9.43
2022-12-28T14:56:01.626Z,9.39
2022-12-28T14:59:04.883Z,9.48
2022-12-28T15:05:39.639Z,9.63
2022-12-28T15:08:44.989Z,9.47
2022-12-28T15:11:47.725Z,9.35
2022-12-28T15:14:52.110Z,9.34
2022-12-28T15:17:54.758Z,9.30
2022-12-28T15:20:59.676Z,9.32
2022-12-28T15:24:05.098Z,9.25
2022-12-28T15:27:07.883Z,9.23
2022-12-28T15:30:18.749Z,9.34
2022-12-28T15:33:23.194Z,9.20
2022-12-28T15:36:27.290Z,9.15
2022-12-28T15:39:33.314Z,9.08
2022-12-28T15:42:40.314Z,9.18
2022-12-28T15:49:26.668Z,9.00
2022-12-28T15:52:30.681Z,9.10
2022-12-28T15:55:36.107Z,9.08
2022-12-28T15:58:38.789Z,9.11
2022-12-28T16:05:08.252Z,9.04
2022-12-28T16:08:12.316Z,8.96
2022-12-28T16:11:19.234Z,8.85
2022-12-28T16:14:21.907Z,8.96
2022-12-28T16:20:47.406Z,9.22
2022-12-28T16:23:50.126Z,9.19
2022-12-28T16:30:21.066Z,9.03
2022-12-28T16:33:25.575Z,9.02
2022-12-28T16:36:29.726Z,9.00
2022-12-28T16:39:33.660Z,9.05
2022-12-28T16:42:38.770Z,9.15
2022-12-28T16:45:44.394Z,9.15
2022-12-28T16:48:47.096Z,9.17
2022-12-28T16:51:50.878Z,9.18
2022-12-28T16:54:53.573Z,9.15
2022-12-28T16:57:59.332Z,9.21
2022-12-28T17:01:07.433Z,9.28
2022-12-28T17:04:11.402Z,9.29
2022-12-28T17:07:15.155Z,9.24
2022-12-28T17:10:18.283Z,9.34
2022-12-28T17:13:23.467Z,9.29
2022-12-28T17:16:26.267Z,9.24
2022-12-28T17:19:30.409Z,9.40
2022-12-28T17:22:34.356Z,9.36
2022-12-28T17:25:37.594Z,9.24
2022-12-28T17:28:42.705Z,9.24
2022-12-28T17:31:45.782Z,9.21
2022-12-28T17:34:49.605Z,9.06
2022-12-28T17:37:53.441Z,9.11
2022-12-28T17:40:56.661Z,9.09
2022-12-28T17:44:02.474Z,8.97
2022-12-28T17:47:05.255Z,8.97
2022-12-28T17:50:10.416Z,8.94
2022-12-28T17:53:14.211Z,8.92
2022-12-28T17:56:17.293Z,9.07
2022-12-28T17:59:22.483Z,9.09
2022-12-28T18:02:25.492Z,8.97
2022-12-28T18:05:29.672Z,9.12
2022-12-28T18:08:32.628Z,9.14
2022-12-28T18:11:36.668Z,9.14
2022-12-28T18:14:41.979Z,9.27
2022-12-28T18:17:44.753Z,9.14
2022-12-28T18:20:58.157Z,9.36
2022-12-28T18:24:02.105Z,9.28
2022-12-28T18:27:04.876Z,9.28
2022-12-28T18:30:11.579Z,9.29
2022-12-28T18:33:14.289Z,9.31
2022-12-28T18:36:18.959Z,9.20
2022-12-28T18:39:22.911Z,9.33
2022-12-28T18:42:25.660Z,9.26
2022-12-28T18:45:50.049Z,9.32
2022-12-28T18:48:52.842Z,9.42
2022-12-28T18:51:56.889Z,9.31
2022-12-28T18:55:00.817Z,9.12
2022-12-28T18:58:03.536Z,9.23
2022-12-28T19:01:25.415Z,9.23
2022-12-28T19:04:34.406Z,9.12
2022-12-28T19:07:37.275Z,9.06
2022-12-28T19:10:41.229Z,9.09
2022-12-28T19:13:45.175Z,8.96
2022-12-28T19:16:50.493Z,9.14
2022-12-28T19:19:53.219Z,8.84
2022-12-28T19:22:57.159Z,8.79
2022-12-28T19:26:01.558Z,8.81
2022-12-28T19:29:06.956Z,8.88
2022-12-28T19:32:12.359Z,8.80
2022-12-28T19:35:15.812Z,8.70
2022-12-28T19:38:19.746Z,8.55
2022-12-28T19:41:24.664Z,8.56
2022-12-28T19:44:27.373Z,8.56
2022-12-28T19:47:32.747Z,8.64
2022-12-28T19:50:35.461Z,8.65
2022-12-28T19:53:39.727Z,8.53
2022-12-28T19:56:43.701Z,8.48
2022-12-28T19:59:46.351Z,8.47
2022-12-28T20:02:51.820Z,8.54
2022-12-28T20:05:54.595Z,8.56
2022-12-28T20:09:01.247Z,8.49
2022-12-28T20:12:05.187Z,8.54
2022-12-28T20:15:08.669Z,8.45
2022-12-28T20:18:13.969Z,8.53
2022-12-28T20:21:20.065Z,8.62
2022-12-28T20:24:24.913Z,8.54
2022-12-28T20:27:31.754Z,8.47
2022-12-28T20:30:34.448Z,8.55
2022-12-28T20:33:40.661Z,8.56
2022-12-28T20:36:43.376Z,8.49
2022-12-28T20:39:47.663Z,8.55
2022-12-28T20:43:14.213Z,8.44
2022-12-28T20:46:16.930Z,8.56
2022-12-28T20:49:22.394Z,8.64
2022-12-28T20:52:25.173Z,8.60
2022-12-28T20:55:29.177Z,8.76
2022-12-28T20:58:33.096Z,8.65
2022-12-28T21:01:36.905Z,8.49
2022-12-28T21:04:42.305Z,8.55
2022-12-28T21:07:44.976Z,8.56
2022-12-28T21:10:49.130Z,8.69
2022-12-28T21:13:53.537Z,8.53
2022-12-28T21:16:56.229Z,8.66
2022-12-28T21:20:01.511Z,8.68
2022-12-28T21:23:04.253Z,8.68
2022-12-28T21:26:10.222Z,8.62
2022-12-28T21:29:12.871Z,8.54
2022-12-28T21:32:16.829Z,8.57
2022-12-28T21:38:44.905Z,8.79
2022-12-28T21:41:50.574Z,8.65
2022-12-28T21:44:54.582Z,8.60
2022-12-28T21:47:57.274Z,8.69
2022-12-28T21:51:28.343Z,8.88
2022-12-28T21:54:32.351Z,8.91
2022-12-28T21:57:36.281Z,8.79
2022-12-28T22:00:57.984Z,8.78
2022-12-28T22:04:18.371Z,8.58
2022-12-28T22:07:25.067Z,8.78
2022-12-28T22:10:47.225Z,8.79
2022-12-28T22:13:53.581Z,8.91
2022-12-28T22:16:57.914Z,8.89
2022-12-28T22:20:00.597Z,8.82
2022-12-28T22:23:07.547Z,8.86
2022-12-28T22:26:10.485Z,8.81
2022-12-28T22:29:14.567Z,8.73
2022-12-28T22:32:17.432Z,8.89
2022-12-28T22:35:21.658Z,9.13
2022-12-28T22:38:26.967Z,9.11
2022-12-28T22:41:29.641Z,9.03
2022-12-28T22:44:33.553Z,9.11
2022-12-28T22:47:37.540Z,9.02
2022-12-28T22:50:43.287Z,9.05
2022-12-28T22:53:51.090Z,9.01
2022-12-28T22:56:53.799Z,9.01
2022-12-28T22:59:57.844Z,9.01
2022-12-28T23:03:00.617Z,8.98
2022-12-28T23:06:04.641Z,9.18
2022-12-28T23:09:09.915Z,8.96
2022-12-28T23:12:13.864Z,8.90
2022-12-28T23:15:20.172Z,8.96
2022-12-28T23:18:41.695Z,8.75
2022-12-28T23:22:01.990Z,8.84
2022-12-28T23:25:25.911Z,8.89
2022-12-28T23:28:30.250Z,8.84
2022-12-28T23:31:32.924Z,8.84
2022-12-28T23:37:56.952Z,8.69
2022-12-28T23:41:24.197Z,8.95
2022-12-28T23:44:28.957Z,8.86
2022-12-28T23:47:31.687Z,8.78
2022-12-28T23:50:35.645Z,8.90
2022-12-28T23:53:38.327Z,8.80
2022-12-28T23:56:44.219Z,8.92
2022-12-28T23:59:48.780Z,8.88
